Lawson Army Air Field (Fort Benning)
KLSF : now visible

Airfield :











YOU CAN JOIN US ON...

 
LOGIN :

Register | Disclaimer

   EN    FR    IT 

 









Legend :    VFR   Marginal VFR   IFR   Intensive IFR   Very Intensive IFR
Visi :
Ceiling :
>= 8 km
>= 3000ft
5 to 8 km
1000 to 3000 ft
1500m to 5 km
500 to 1000 ft
800 to 1500m
200 to 500 ft
< 800m
< 200 ft
Symbols :   Thunderstorms  Fog  Heavy snow  Heavy precipitations  Wind > 20 kt






- Airport Elevation : 232 ft


KLSF - Lawson Army Air Field (Fort Benning)

CURRENT METAR :
  • 311456Z AUTO 04005KT 10SM OVC041 14/07 A3031 RMK AO2 SLP269 T01430069 52018

EXPIRED METARs :
  • 311401Z AUTO 05007KT 10SM BKN040 13/06 A3030 RMK AO2 SLP266
  • 311356Z AUTO 05009KT 10SM BKN041 13/07 A3030 RMK AO2 SLP266 T01300068
  • 311256Z AUTO 03004KT 10SM BKN040 11/07 A3028 RMK AO2 SLP259 T01050066

TAF TAF KLSF
Valid from the 30 at 17:00 until the 31 at 23:00 UTC


301658Z 3017/3123 33010G20KT 9999 BKN025 QNH3005INS
BECMG 3021/3022 34008KT 9999 SCT030 QNH3007INS
TEMPO 3114/3118 03010G15KT
BECMG 3120/3121 06007KT 9999 BKN030 QNH3020INS TX20/3020Z TN07/3108Z
KZTL FIR / North America



MET'MAP, your aeronautical weather chart ! - Copyright ORBIFLY December 2007 - Disclaimer

ORBIFLY MET'MAP TEAM :

Programming & Development : Alexandra Zaïnal
Concept & original design : Baudouin d'Aumeries
Assistance for programming : Marc-Olivier Méhu
Technical & hardware support : Manuel Goepfert

Contact : metmap@orbifly.com




SOURCES & CREDITS :

   NOAA       Earth
Advisory